Time;durP1;ratioP1;P1;durP2;ratioP2;P2;SDS_P1;SDS_P2;PMS_P1;PMS_P2;Temp;Humidity;BMP_temperature;BMP_pressure;BME280_temperature;BME280_humidity;BME280_pressure;Samples;Min_cycle;Max_cycle;Signal;HPM_P1;HPM_P2
2022/01/06 00:02:03;;;;;;;3.20;1.60;;;;;;;2.99;85.22;99011.97;10500653;28;20049;-72
2022/01/06 00:07:05;;;;;;;3.25;1.52;;;;;;;2.88;86.22;99011.28;10500669;28;20071;-72
2022/01/06 00:12:10;;;;;;;2.95;1.77;;;;;;;2.81;88.10;99014.88;10498978;28;20083;-72
2022/01/06 00:17:34;;;;;;;3.88;1.95;;;;;;;2.73;89.23;99010.66;10523260;28;20150;-72
2022/01/06 00:27:56;;;;;;;3.13;2.13;;;;;;;2.64;90.24;99048.88;10541631;28;20105;-71
2022/01/06 00:32:57;;;;;;;4.93;2.35;;;;;;;2.36;91.74;99059.69;10541673;28;20048;-71
2022/01/06 00:37:59;;;;;;;4.13;2.28;;;;;;;2.11;93.11;99079.88;10541370;28;20115;-72
2022/01/06 00:43:03;;;;;;;4.63;2.00;;;;;;;2.06;91.37;99076.50;10540819;28;20048;-72
2022/01/06 00:48:07;;;;;;;5.13;2.25;;;;;;;1.81;92.97;99081.13;10521945;28;20439;-72
2022/01/06 00:53:09;;;;;;;3.40;1.50;;;;;;;1.81;93.37;99064.72;10540518;28;20127;-72
2022/01/06 00:58:12;;;;;;;1.42;0.93;;;;;;;1.80;94.01;99065.59;10540080;28;20078;-72
2022/01/06 01:03:20;;;;;;;1.65;0.90;;;;;;;1.78;93.94;99068.22;10540485;28;20036;-72
2022/01/06 01:08:23;;;;;;;0.70;0.70;;;;;;;1.86;93.22;99076.75;10539433;28;20507;-72
2022/01/06 01:13:30;;;;;;;1.77;0.88;;;;;;;2.06;92.25;99084.28;10539811;28;20051;-72
2022/01/06 01:18:32;;;;;;;1.48;0.70;;;;;;;2.06;92.66;99107.59;10539738;28;20062;-72
2022/01/06 01:23:33;;;;;;;2.67;0.75;;;;;;;1.92;93.23;99104.31;10539330;28;20049;-72
2022/01/06 01:28:43;;;;;;;1.23;0.60;;;;;;;1.74;93.87;99100.22;10539098;28;20489;-72
2022/01/06 01:33:46;;;;;;;1.77;0.60;;;;;;;1.86;94.12;99114.75;10540065;28;20044;-72
2022/01/06 01:38:48;;;;;;;2.08;1.05;;;;;;;1.82;94.38;99128.63;10504232;28;20417;-72
2022/01/06 01:43:50;;;;;;;4.47;1.75;;;;;;;2.17;93.09;99135.97;10538798;28;20040;-72
2022/01/06 01:49:12;;;;;;;6.88;1.90;;;;;;;2.21;92.63;99135.94;10520654;28;20074;-71
2022/01/06 01:54:14;;;;;;;4.32;1.20;;;;;;;2.46;92.20;99143.41;10538619;28;20052;-72
2022/01/06 01:59:15;;;;;;;8.23;1.70;;;;;;;2.59;91.49;99142.34;10544832;28;20043;-72
2022/01/06 02:04:17;;;;;;;5.15;1.50;;;;;;;2.68;91.40;99157.78;10546468;28;20105;-72
2022/01/06 02:09:18;;;;;;;3.60;1.30;;;;;;;2.58;92.77;99168.34;10546512;28;20105;-72
2022/01/06 02:14:20;;;;;;;7.22;1.60;;;;;;;2.38;93.79;99168.56;10546268;28;20044;-72
2022/01/06 02:19:21;;;;;;;5.35;1.45;;;;;;;2.48;93.58;99172.78;10545769;28;20093;-72
2022/01/06 02:24:23;;;;;;;5.40;1.17;;;;;;;2.50;92.59;99171.88;10545456;28;20047;-72
2022/01/06 02:29:24;;;;;;;3.53;0.98;;;;;;;2.42;92.68;99178.03;10527836;28;20044;-72
2022/01/06 02:34:26;;;;;;;2.42;0.93;;;;;;;2.48;91.72;99177.97;10545613;28;20089;-71
2022/01/06 02:39:27;;;;;;;6.20;1.00;;;;;;;2.44;91.97;99182.34;10545199;28;20127;-72
2022/01/06 02:44:29;;;;;;;7.20;1.02;;;;;;;2.36;92.81;99191.94;10527569;28;20078;-72
2022/01/06 02:49:31;;;;;;;7.00;1.30;;;;;;;2.17;92.68;99195.59;10545095;28;20106;-72
2022/01/06 02:54:34;;;;;;;9.27;1.50;;;;;;;1.76;94.57;99192.56;10545251;28;20063;-72
2022/01/06 02:59:35;;;;;;;4.63;1.30;;;;;;;1.83;94.99;99201.16;10546108;28;20430;-72
2022/01/06 03:04:38;;;;;;;3.75;1.27;;;;;;;1.71;96.60;99196.09;10526057;28;20447;-72
2022/01/06 03:09:41;;;;;;;8.55;1.90;;;;;;;1.84;97.23;99199.44;10543490;28;20105;-71
2022/01/06 03:14:43;;;;;;;6.22;1.70;;;;;;;2.03;96.85;99209.56;10544997;28;20457;-72
2022/01/06 03:19:45;;;;;;;7.40;1.88;;;;;;;2.39;94.69;99204.00;10543774;28;20089;-72
2022/01/06 03:24:46;;;;;;;7.88;2.30;;;;;;;2.46;93.83;99203.91;10543631;28;20074;-72
2022/01/06 03:29:50;;;;;;;6.97;1.48;;;;;;;2.44;92.96;99217.81;10543225;28;20489;-71
2022/01/06 03:34:51;;;;;;;16.10;2.17;;;;;;;2.27;93.80;99244.78;10543192;28;20050;-71
2022/01/06 03:39:53;;;;;;;7.47;1.88;;;;;;;1.94;95.43;99278.81;10542649;28;20078;-71
2022/01/06 03:44:55;;;;;;;5.03;1.77;;;;;;;1.46;94.46;99267.97;10525937;28;20443;-72
2022/01/06 03:49:56;;;;;;;6.95;1.70;;;;;;;1.42;94.33;99251.59;10524797;28;20408;-72
2022/01/06 03:54:59;;;;;;;6.28;1.45;;;;;;;1.51;94.94;99274.00;10542056;28;20063;-72
2022/01/06 04:00:05;;;;;;;4.80;1.23;;;;;;;1.18;94.80;99254.34;10542318;28;20465;-72
2022/01/06 04:05:13;;;;;;;1.83;0.70;;;;;;;1.25;95.17;99274.16;10542210;28;20048;-72
2022/01/06 04:10:15;;;;;;;1.20;0.50;;;;;;;1.26;96.13;99294.00;10541586;28;20047;-72
2022/01/06 04:15:17;;;;;;;1.75;0.80;;;;;;;1.25;97.35;99313.00;10541653;28;20048;-72
2022/01/06 04:20:19;;;;;;;1.85;0.63;;;;;;;1.21;97.58;99326.81;10541506;28;20555;-72
2022/01/06 04:25:21;;;;;;;2.05;1.05;;;;;;;0.80;96.62;99352.88;10541565;28;20090;-72
2022/01/06 04:30:22;;;;;;;1.55;0.73;;;;;;;0.50;97.63;99359.88;10541299;28;20060;-71
2022/01/06 04:35:24;;;;;;;1.67;1.00;;;;;;;0.45;97.95;99372.81;10541625;28;20044;-72
2022/01/06 04:40:25;;;;;;;1.00;0.90;;;;;;;0.45;97.80;99375.38;10523713;28;20546;-72
2022/01/06 04:45:27;;;;;;;3.22;2.40;;;;;;;0.51;98.59;99390.03;10542240;28;20040;-72
2022/01/06 04:50:29;;;;;;;2.50;1.75;;;;;;;0.49;97.60;99396.94;10540275;28;20044;-72
2022/01/06 04:55:30;;;;;;;2.58;1.50;;;;;;;0.70;96.29;99401.19;10532035;22;20056;-72
2022/01/06 05:00:32;;;;;;;4.18;1.30;;;;;;;0.55;96.46;99421.91;10505257;28;20053;-71
2022/01/06 05:05:34;;;;;;;2.90;1.30;;;;;;;0.68;96.12;99429.66;10507680;28;20094;-72
2022/01/06 05:10:36;;;;;;;2.80;1.30;;;;;;;0.78;95.26;99445.16;10551185;28;20402;-72
2022/01/06 05:15:37;;;;;;;2.40;1.10;;;;;;;0.77;94.26;99459.81;10552450;28;20062;-72
2022/01/06 05:20:45;;;;;;;4.22;1.52;;;;;;;0.69;91.39;99474.47;10556138;28;20043;-71
2022/01/06 05:25:47;;;;;;;4.53;1.33;;;;;;;0.58;87.68;99473.66;10538603;28;20093;-72
2022/01/06 05:30:49;;;;;;;8.20;1.90;;;;;;;0.55;88.02;99479.66;10539990;28;20578;-71
2022/01/06 05:35:53;;;;;;;4.95;1.63;;;;;;;0.48;87.51;99498.63;10534780;28;20051;-71
2022/01/06 05:40:54;;;;;;;4.95;1.58;;;;;;;0.42;87.75;99502.06;10552961;28;20097;-71
2022/01/06 05:45:58;;;;;;;5.28;1.33;;;;;;;0.35;88.00;99518.44;10550314;28;20066;-72
2022/01/06 05:50:59;;;;;;;4.85;2.30;;;;;;;0.28;88.33;99541.72;10549631;28;20064;-72
2022/01/06 05:56:01;;;;;;;5.65;1.75;;;;;;;0.21;86.97;99559.78;10546895;28;20058;-72
2022/01/06 06:01:03;;;;;;;5.20;1.70;;;;;;;0.11;86.68;99573.53;10547511;28;20354;-72
2022/01/06 06:06:05;;;;;;;4.90;2.30;;;;;;;0.15;84.60;99588.19;10529003;28;20040;-72
2022/01/06 06:11:07;;;;;;;4.30;1.50;;;;;;;0.13;83.08;99599.38;10525746;28;20051;-74
2022/01/06 06:16:08;;;;;;;4.88;1.67;;;;;;;0.06;83.82;99611.44;10544010;28;20040;-73
2022/01/06 06:21:10;;;;;;;3.28;0.95;;;;;;;0.13;83.05;99627.81;10524020;28;20127;-74
2022/01/06 06:26:11;;;;;;;5.60;1.30;;;;;;;0.07;83.48;99643.31;10510227;28;20147;-74
2022/01/06 06:31:13;;;;;;;5.20;1.40;;;;;;;-0.01;82.48;99662.19;10543233;28;20484;-73
2022/01/06 06:36:15;;;;;;;3.65;1.90;;;;;;;0.05;81.84;99674.31;10542805;28;20070;-74
2022/01/06 06:41:20;;;;;;;3.85;1.63;;;;;;;-0.11;81.22;99686.28;10525610;28;20561;-75
2022/01/06 06:46:22;;;;;;;4.05;1.75;;;;;;;-0.28;81.20;99690.47;10551455;28;20036;-74
2022/01/06 06:51:24;;;;;;;11.25;2.28;;;;;;;-0.34;80.49;99711.09;10550431;28;20457;-74
2022/01/06 06:56:25;;;;;;;3.78;1.80;;;;;;;-0.19;78.34;99726.69;10531874;28;20455;-74
2022/01/06 07:01:27;;;;;;;3.47;1.70;;;;;;;-0.37;79.90;99737.75;10551427;28;20097;-74
2022/01/06 07:06:29;;;;;;;6.78;1.80;;;;;;;-0.45;80.29;99754.03;10551734;28;20052;-74
2022/01/06 07:11:32;;;;;;;5.90;2.45;;;;;;;-0.29;77.02;99753.31;10532661;28;20093;-75
2022/01/06 07:16:33;;;;;;;5.25;3.40;;;;;;;-0.42;77.84;99772.16;10531878;28;20036;-75
2022/01/06 07:21:35;;;;;;;13.43;3.67;;;;;;;-0.42;78.11;99785.06;10549141;28;20040;-75
2022/01/06 07:26:36;;;;;;;3.90;2.47;;;;;;;-0.53;77.38;99797.91;10551010;28;20032;-75
2022/01/06 07:31:38;;;;;;;5.13;1.55;;;;;;;-0.61;77.26;99805.56;10549508;28;20039;-75
2022/01/06 07:36:40;;;;;;;19.15;2.45;;;;;;;-0.56;77.29;99816.78;10550132;28;20040;-75
2022/01/06 07:41:42;;;;;;;4.60;2.08;;;;;;;-0.47;77.17;99825.47;10532316;28;20050;-74
2022/01/06 07:46:45;;;;;;;8.43;1.70;;;;;;;-0.54;77.77;99843.47;10547662;28;20046;-75
2022/01/06 07:51:47;;;;;;;6.63;3.47;;;;;;;-0.38;78.14;99851.38;10549797;28;20048;-75
2022/01/06 07:56:50;;;;;;;11.25;7.35;;;;;;;-0.45;79.18;99867.66;10547042;28;20089;-75
2022/01/06 08:01:51;;;;;;;7.07;2.70;;;;;;;-0.58;79.36;99872.69;10547971;28;20501;-75
2022/01/06 08:06:53;;;;;;;4.80;1.25;;;;;;;-0.46;79.27;99886.59;10548465;28;20036;-75
2022/01/06 08:11:54;;;;;;;6.20;1.60;;;;;;;-0.62;80.21;99895.88;10531773;28;20105;-75
2022/01/06 08:16:57;;;;;;;3.80;1.02;;;;;;;-0.24;77.53;99900.59;10548209;28;20044;-75
2022/01/06 08:21:58;;;;;;;3.70;1.27;;;;;;;-0.42;79.47;99920.22;10548166;28;20127;-75
2022/01/06 08:27:01;;;;;;;4.18;1.20;;;;;;;-0.39;79.94;99924.56;10548349;28;20097;-75
2022/01/06 08:32:03;;;;;;;4.75;1.60;;;;;;;-0.37;80.37;99928.88;10533231;28;20074;-75
2022/01/06 08:37:05;;;;;;;6.72;1.20;;;;;;;-0.44;81.75;99933.94;10547493;28;20048;-74
2022/01/06 08:42:07;;;;;;;3.38;1.25;;;;;;;-0.17;81.19;99942.00;10547684;28;20066;-74
2022/01/06 08:47:09;;;;;;;3.65;1.33;;;;;;;0.02;81.15;99948.22;10547033;28;20143;-76
2022/01/06 08:52:11;;;;;;;4.03;1.33;;;;;;;0.24;80.24;99954.44;10531017;28;20044;-74
2022/01/06 08:57:12;;;;;;;2.85;0.82;;;;;;;0.24;79.63;99959.59;10533055;28;20032;-72
2022/01/06 09:02:14;;;;;;;5.45;1.55;;;;;;;0.18;80.06;99967.31;10548192;28;20072;-72
2022/01/06 09:07:16;;;;;;;2.45;1.05;;;;;;;0.04;81.62;99987.84;10528572;28;20071;-73
2022/01/06 09:12:18;;;;;;;9.88;1.30;;;;;;;0.40;79.75;99983.84;10528741;28;20493;-73
2022/01/06 09:17:20;;;;;;;5.07;1.00;;;;;;;0.23;80.89;99999.25;10591029;28;20050;-73
2022/01/06 09:22:21;;;;;;;5.40;1.33;;;;;;;0.35;79.93;100003.63;10588083;28;20471;-73
2022/01/06 09:27:23;;;;;;;4.53;1.80;;;;;;;0.45;79.24;100010.66;10587645;28;20442;-72
2022/01/06 09:32:25;;;;;;;2.80;1.27;;;;;;;0.50;77.94;100012.41;10570101;28;20044;-72
2022/01/06 09:37:27;;;;;;;5.82;1.55;;;;;;;0.55;78.72;100016.75;10570509;28;20048;-73
2022/01/06 09:42:29;;;;;;;4.10;1.20;;;;;;;0.79;76.39;100016.06;10587223;28;20039;-71
2022/01/06 09:47:31;;;;;;;5.95;1.80;;;;;;;0.57;78.63;100025.38;10586340;28;20053;-72
2022/01/06 09:52:41;;;;;;;7.15;1.35;;;;;;;0.76;77.52;100035.03;10588402;28;20047;-73
2022/01/06 09:57:57;;;;;;;5.20;1.52;;;;;;;0.73;77.85;100025.53;10586915;28;20070;-72
2022/01/06 10:03:03;;;;;;;6.35;3.03;;;;;;;0.79;77.36;100035.06;10570508;28;20570;-72
2022/01/06 10:08:06;;;;;;;3.85;1.30;;;;;;;0.87;76.57;100030.81;10562521;28;20055;-72
2022/01/06 10:13:09;;;;;;;4.70;1.95;;;;;;;0.94;75.65;100037.75;10561216;28;20048;-72
2022/01/06 10:18:12;;;;;;;4.43;1.60;;;;;;;0.92;75.62;100046.38;10551145;28;20044;-72
2022/01/06 10:23:16;;;;;;;3.92;1.23;;;;;;;0.66;77.37;100052.19;10595338;28;20079;-73
2022/01/06 10:28:24;;;;;;;5.60;1.60;;;;;;;0.72;77.19;100061.75;10553340;28;20051;-72
2022/01/06 10:33:35;;;;;;;6.20;1.77;;;;;;;0.56;78.14;100067.63;10552656;28;20105;-72
2022/01/06 10:38:37;;;;;;;5.25;1.42;;;;;;;0.67;76.77;100071.19;10551198;28;20043;-73
2022/01/06 10:43:38;;;;;;;3.53;1.63;;;;;;;0.69;77.18;100077.22;10575371;28;20108;-73
2022/01/06 10:48:44;;;;;;;4.55;1.40;;;;;;;0.70;76.88;100084.13;10593692;28;20050;-72
2022/01/06 10:53:49;;;;;;;5.93;2.40;;;;;;;0.70;77.30;100085.00;10593173;28;20412;-73
2022/01/06 10:58:55;;;;;;;5.38;1.83;;;;;;;0.87;75.86;100090.31;10574914;28;20062;-76
2022/01/06 11:03:57;;;;;;;6.10;1.90;;;;;;;0.98;76.16;100078.34;10594546;28;20456;-76
2022/01/06 11:08:59;;;;;;;4.57;1.50;;;;;;;0.86;75.71;100085.16;10575843;28;20124;-75
2022/01/06 11:14:00;;;;;;;4.13;1.73;;;;;;;0.97;76.04;100086.97;10593098;28;20058;-74
2022/01/06 11:19:03;;;;;;;4.90;1.98;;;;;;;1.05;76.18;100104.28;10593756;28;20043;-75
2022/01/06 11:24:20;;;;;;;6.20;1.98;;;;;;;1.22;74.41;100100.94;10575365;28;20047;-76
2022/01/06 11:29:27;;;;;;;3.40;1.57;;;;;;;1.59;73.42;100098.59;10595463;28;20047;-75
2022/01/06 11:34:35;;;;;;;;;;;;;;;1.81;72.31;100099.56;10594765;28;20051;-74
2022/01/06 11:39:37;;;;;;;8.90;2.15;;;;;;;1.88;72.98;100097.88;10575146;28;20376;-75
2022/01/06 11:44:52;;;;;;;3.85;1.38;;;;;;;3.26;67.48;100097.22;10593394;28;20043;-75
2022/01/06 11:50:11;;;;;;;5.00;1.35;;;;;;;3.36;68.21;100095.47;10594157;28;20046;-75
2022/01/06 11:55:14;;;;;;;2.83;1.30;;;;;;;4.17;64.00;100094.38;10574303;28;20055;-74
2022/01/06 12:00:19;;;;;;;5.60;2.03;;;;;;;3.86;62.87;100096.25;10573356;28;20051;-74
2022/01/06 12:05:20;;;;;;;3.08;1.20;;;;;;;3.24;66.88;100101.56;10591965;28;20073;-74
2022/01/06 12:10:22;;;;;;;5.82;1.20;;;;;;;3.58;65.67;100105.84;10593665;28;20043;-74
2022/01/06 12:15:24;;;;;;;5.10;1.27;;;;;;;3.59;63.59;100098.06;10549389;28;20082;-75
2022/01/06 12:20:27;;;;;;;3.88;1.10;;;;;;;3.52;63.47;100112.78;10583060;28;20044;-75
2022/01/06 12:25:29;;;;;;;2.10;0.98;;;;;;;3.45;64.01;100126.69;10531778;28;20200;-75
2022/01/06 12:30:37;;;;;;;3.42;1.33;;;;;;;3.16;65.18;100131.88;10551812;28;20044;-75
2022/01/06 12:35:50;;;;;;;4.82;1.33;;;;;;;2.98;65.81;100139.66;10548903;28;20042;-76
2022/01/06 12:40:52;;;;;;;6.55;1.20;;;;;;;2.75;66.49;100142.25;10548880;28;20054;-74
2022/01/06 12:46:14;;;;;;;5.23;1.27;;;;;;;2.26;68.96;100147.31;10550187;28;20056;-75
2022/01/06 12:51:21;;;;;;;1.50;1.13;;;;;;;2.33;67.88;100146.44;10531177;28;20572;-75
2022/01/06 12:56:25;;;;;;;;;;;;;;;2.17;68.48;100153.31;10552020;28;20052;-76
2022/01/06 13:01:28;;;;;;;4.75;1.20;;;;;;;2.10;68.14;100155.88;10512693;28;19920;-75
2022/01/06 13:06:32;;;;;;;4.63;1.33;;;;;;;2.10;68.95;100155.88;10549537;28;20036;-75
2022/01/06 13:11:54;;;;;;;1.30;1.00;;;;;;;1.90;69.61;100164.41;10548839;28;20362;-76
2022/01/06 13:17:18;;;;;;;3.72;1.30;;;;;;;2.03;69.79;100161.00;10533622;28;20150;-76
2022/01/06 13:27:58;;;;;;;3.20;1.13;;;;;;;2.09;68.34;100190.44;10548477;28;20047;-76
2022/01/06 13:33:02;;;;;;;4.53;1.40;;;;;;;2.07;69.50;100193.03;10548109;28;20044;-76
2022/01/06 13:38:20;;;;;;;3.55;1.25;;;;;;;2.23;68.62;100199.16;10550480;28;20402;-75
2022/01/06 13:43:24;;;;;;;8.48;1.48;;;;;;;2.00;70.82;100212.88;10545338;28;20052;-76
2022/01/06 13:53:51;;;;;;;5.53;3.13;;;;;;;1.93;71.07;100213.69;10551453;28;20463;-75
2022/01/06 13:58:53;;;;;;;5.20;2.38;;;;;;;1.85;70.92;100217.94;10539775;28;20048;-75
2022/01/06 14:03:56;;;;;;;52.22;9.68;;;;;;;2.06;70.24;100221.53;10557816;28;20047;-76
2022/01/06 14:08:57;;;;;;;7.78;3.60;;;;;;;1.88;71.00;100225.75;10557134;28;20040;-76
2022/01/06 14:13:59;;;;;;;4.20;1.50;;;;;;;2.12;68.75;100234.53;10556262;28;20052;-76
2022/01/06 14:19:02;;;;;;;7.57;1.25;;;;;;;1.81;70.05;100242.09;10537596;28;20050;-75
2022/01/06 14:24:04;;;;;;;3.42;1.38;;;;;;;1.85;70.17;100243.88;10540877;28;20101;-76
2022/01/06 14:29:06;;;;;;;6.75;5.75;;;;;;;1.72;70.32;100249.81;10555974;28;20047;-76
2022/01/06 14:34:08;;;;;;;5.30;2.05;;;;;;;1.56;71.48;100248.84;10520195;28;20067;-76
2022/01/06 14:39:10;;;;;;;4.90;1.90;;;;;;;1.59;70.77;100261.81;10553534;28;20036;-76
2022/01/06 14:44:12;;;;;;;6.25;1.75;;;;;;;1.61;70.71;100265.31;10555355;28;20044;-76
2022/01/06 14:49:14;;;;;;;6.57;1.80;;;;;;;1.68;69.86;100261.91;10552422;28;20040;-76
2022/01/06 14:54:15;;;;;;;6.63;1.80;;;;;;;1.59;70.59;100274.75;10552042;28;20432;-77
2022/01/06 14:59:18;;;;;;;8.27;1.73;;;;;;;1.63;70.16;100276.53;10534960;28;20044;-77
2022/01/06 15:04:19;;;;;;;3.60;1.50;;;;;;;1.44;71.46;100279.81;10548184;28;20132;-76
2022/01/06 15:09:21;;;;;;;4.20;1.80;;;;;;;1.22;72.08;100284.78;10556220;28;20048;-76
2022/01/06 15:14:23;;;;;;;3.13;1.40;;;;;;;1.14;73.05;100288.16;10559412;28;20082;-77
2022/01/06 15:19:24;;;;;;;5.72;1.30;;;;;;;1.04;74.28;100291.50;10560239;28;20062;-79
2022/01/06 15:24:26;;;;;;;3.92;1.67;;;;;;;1.04;73.68;100302.72;10562987;28;20099;-79
2022/01/06 15:29:28;;;;;;;3.58;1.40;;;;;;;0.97;73.73;100307.00;10566403;28;20093;-79
2022/01/06 15:34:36;;;;;;;4.25;1.67;;;;;;;1.08;72.70;100322.63;10569393;28;20042;-79
2022/01/06 15:39:50;;;;;;;6.72;1.60;;;;;;;0.97;73.49;100329.38;10536115;28;20071;-78
2022/01/06 15:44:51;;;;;;;3.53;1.77;;;;;;;0.96;72.47;100331.09;10538762;28;20082;-77
2022/01/06 15:49:53;;;;;;;4.35;2.00;;;;;;;0.81;73.33;100337.84;10559395;28;20048;-78
2022/01/06 15:54:55;;;;;;;6.85;1.85;;;;;;;0.67;73.96;100342.84;10537543;28;20062;-78
2022/01/06 16:00:04;;;;;;;3.83;1.98;;;;;;;0.81;72.80;100356.81;10555615;28;20047;-77
2022/01/06 16:05:16;;;;;;;3.13;1.50;;;;;;;0.70;72.88;100353.19;10542498;28;20055;-77
2022/01/06 16:10:17;;;;;;;5.55;1.50;;;;;;;0.74;72.25;100358.44;10538991;28;20039;-77
2022/01/06 16:15:19;;;;;;;5.25;1.50;;;;;;;0.66;72.35;100364.34;10552828;28;20052;-77
2022/01/06 16:20:28;;;;;;;6.28;2.03;;;;;;;0.59;72.80;100375.50;10554827;28;20040;-78
2022/01/06 16:25:36;;;;;;;4.60;2.78;;;;;;;0.53;73.00;100376.25;10539687;28;20055;-77
2022/01/06 16:30:46;;;;;;;4.05;2.72;;;;;;;0.31;74.36;100382.84;10558465;28;20090;-77
2022/01/06 16:35:48;;;;;;;3.47;1.88;;;;;;;0.44;73.36;100389.94;10548330;28;20137;-72
2022/01/06 16:40:53;;;;;;;5.32;1.73;;;;;;;0.27;74.45;100399.16;10590508;28;20357;-72
2022/01/06 16:45:56;;;;;;;4.97;2.03;;;;;;;0.26;74.01;100399.97;10590519;28;20081;-72
2022/01/06 16:51:00;;;;;;;4.10;2.20;;;;;;;0.32;74.23;100397.50;10591522;28;20035;-72
2022/01/06 16:56:01;;;;;;;6.18;2.55;;;;;;;0.31;73.68;100394.88;10576132;28;20065;-71
2022/01/06 17:01:03;;;;;;;3.75;2.35;;;;;;;0.20;73.98;100407.66;10592030;28;20051;-75
2022/01/06 17:06:06;;;;;;;5.85;2.58;;;;;;;0.19;74.26;100400.75;10534234;28;20436;-76
2022/01/06 17:11:08;;;;;;;4.47;2.60;;;;;;;0.16;74.55;100405.88;10532950;22;20048;-75
2022/01/06 17:16:11;;;;;;;7.10;3.33;;;;;;;0.27;73.45;100413.78;10501640;28;20087;-75
2022/01/06 17:21:12;;;;;;;2.88;1.90;;;;;;;0.13;73.87;100410.97;10503596;28;20044;-75
2022/01/06 17:26:15;;;;;;;6.30;2.47;;;;;;;-0.01;74.99;100409.03;10503539;28;20040;-74
2022/01/06 17:31:17;;;;;;;6.35;2.75;;;;;;;-0.05;75.21;100412.41;10502536;28;20148;-75
2022/01/06 17:36:19;;;;;;;4.65;2.65;;;;;;;-0.05;74.95;100412.41;10502162;28;20056;-76
2022/01/06 17:41:21;;;;;;;9.43;2.65;;;;;;;-0.19;75.64;100403.56;10494425;28;20052;-75
2022/01/06 17:46:36;;;;;;;6.45;2.15;;;;;;;-0.22;75.42;100413.84;10501349;28;20044;-74
2022/01/06 17:51:39;;;;;;;3.88;1.92;;;;;;;-0.21;75.55;100417.31;10502316;28;20059;-75
2022/01/06 17:56:40;;;;;;;4.38;2.60;;;;;;;-0.10;75.04;100429.53;10503288;28;20045;-75
2022/01/06 18:01:42;;;;;;;3.88;2.72;;;;;;;-0.28;75.84;100431.81;10504041;28;20107;-75
2022/01/06 18:06:51;;;;;;;5.70;3.03;;;;;;;-0.32;76.07;100435.16;10505499;28;20482;-75
2022/01/06 18:11:53;;;;;;;5.30;3.67;;;;;;;-0.43;76.58;100434.13;10504356;28;20131;-75
2022/01/06 18:16:55;;;;;;;4.93;3.42;;;;;;;-0.34;76.46;100427.41;10505648;28;20044;-74
2022/01/06 18:21:57;;;;;;;5.88;3.40;;;;;;;-0.37;75.73;100422.16;10505016;28;20554;-75
2022/01/06 18:26:59;;;;;;;9.90;3.53;;;;;;;-0.28;75.31;100421.47;10505369;28;20510;-73
2022/01/06 18:32:02;;;;;;;4.72;3.38;;;;;;;-0.29;74.41;100420.59;10503608;28;20136;-73
2022/01/06 18:37:04;;;;;;;5.35;3.08;;;;;;;-0.14;73.25;100420.00;10504230;28;20098;-74
2022/01/06 18:42:06;;;;;;;5.28;3.33;;;;;;;-0.04;72.88;100427.09;10510996;28;20044;-75
2022/01/06 18:47:08;;;;;;;4.18;2.72;;;;;;;-0.19;73.05;100421.63;10509382;28;20378;-75
2022/01/06 18:52:10;;;;;;;5.22;3.08;;;;;;;-0.17;73.20;100422.56;10511303;28;20044;-74
2022/01/06 18:57:11;;;;;;;4.95;3.65;;;;;;;-0.23;72.78;100426.72;10510947;28;20056;-74
2022/01/06 19:02:13;;;;;;;4.15;3.08;;;;;;;-0.34;74.14;100439.44;10509691;28;20098;-75
2022/01/06 19:07:16;;;;;;;5.00;2.88;;;;;;;-0.28;72.98;100434.38;10511958;28;20476;-74
2022/01/06 19:12:18;;;;;;;4.25;2.92;;;;;;;-0.27;72.63;100434.44;10512823;28;20095;-74
2022/01/06 19:17:20;;;;;;;4.07;2.60;;;;;;;-0.32;73.08;100443.78;10511369;28;20218;-74
2022/01/06 19:22:22;;;;;;;3.30;2.38;;;;;;;-0.32;73.03;100451.53;10508450;28;20049;-74
2022/01/06 19:27:23;;;;;;;4.80;2.55;;;;;;;-0.31;72.92;100440.38;10506554;28;20042;-74
2022/01/06 19:32:25;;;;;;;4.55;2.55;;;;;;;-0.36;73.37;100446.28;10506089;28;20040;-74
2022/01/06 19:37:27;;;;;;;3.50;2.53;;;;;;;-0.29;73.03;100449.03;10506191;28;20051;-73
2022/01/06 19:42:28;;;;;;;5.40;2.50;;;;;;;-0.29;72.39;100443.00;10504933;28;20045;-73
2022/01/06 19:47:31;;;;;;;3.67;2.28;;;;;;;-0.33;72.61;100439.47;10505915;28;20036;-74
2022/01/06 19:52:33;;;;;;;3.70;2.75;;;;;;;-0.40;73.15;100432.47;10504313;28;20049;-74
2022/01/06 19:57:35;;;;;;;6.32;2.72;;;;;;;-0.31;72.48;100442.06;10504778;28;20091;-74
2022/01/06 20:02:40;;;;;;;3.55;2.28;;;;;;;-0.27;71.83;100439.59;10504606;28;20048;-75
2022/01/06 20:07:44;;;;;;;4.45;2.20;;;;;;;-0.12;70.71;100439.00;10504870;28;20140;-74
2022/01/06 20:12:46;;;;;;;6.47;2.63;;;;;;;-0.37;72.42;100442.84;10505604;28;20056;-73
2022/01/06 20:17:47;;;;;;;5.28;2.90;;;;;;;-0.35;72.30;100437.72;10504550;28;20033;-73
2022/01/06 20:22:55;;;;;;;4.50;2.15;;;;;;;-0.55;73.08;100434.75;10485551;28;20140;-74
2022/01/06 20:28:03;;;;;;;5.30;2.55;;;;;;;-0.56;72.53;100439.03;10501023;28;20043;-74
2022/01/06 20:33:05;;;;;;;3.53;2.08;;;;;;;-0.44;71.85;100442.69;10502392;28;20044;-74
2022/01/06 20:38:07;;;;;;;3.85;2.15;;;;;;;-0.46;71.44;100452.13;10502703;28;20044;-73
2022/01/06 20:43:09;;;;;;;4.55;1.83;;;;;;;-0.51;71.39;100457.19;10499871;28;20048;-74
2022/01/06 20:53:15;;;;;;;4.03;2.42;;;;;;;-0.51;71.77;100468.41;10500682;28;20075;-73
2022/01/06 20:58:16;;;;;;;4.88;2.40;;;;;;;-0.55;71.73;100464.00;10499845;28;20048;-73
2022/01/06 21:03:18;;;;;;;5.15;3.08;;;;;;;-0.92;74.09;100469.25;10499178;28;20051;-73
2022/01/06 21:08:20;;;;;;;4.65;2.85;;;;;;;-0.93;74.03;100468.41;10499760;28;20044;-73
2022/01/06 21:13:22;;;;;;;4.45;2.55;;;;;;;-1.05;74.25;100473.28;10502222;28;20064;-74
2022/01/06 21:18:24;;;;;;;4.68;2.80;;;;;;;-1.18;75.07;100471.28;10501899;28;20040;-73
2022/01/06 21:23:26;;;;;;;4.95;2.40;;;;;;;-1.06;74.36;100476.72;10501678;28;20048;-72
2022/01/06 21:28:28;;;;;;;6.40;2.90;;;;;;;-1.12;74.59;100467.09;10500617;28;20045;-74
2022/01/06 21:33:29;;;;;;;3.80;2.22;;;;;;;-0.84;73.68;100480.59;10500795;28;20033;-74
2022/01/06 21:38:31;;;;;;;5.32;2.13;;;;;;;-0.92;73.53;100477.88;10501623;28;20033;-73
2022/01/06 21:43:33;;;;;;;4.18;2.25;;;;;;;-0.85;73.45;100481.44;10501197;28;20064;-73
2022/01/06 21:48:34;;;;;;;5.53;2.20;;;;;;;-0.74;72.61;100473.94;10501487;28;20072;-74
2022/01/06 21:53:36;;;;;;;3.28;1.98;;;;;;;-0.81;73.09;100478.09;10499648;28;20049;-74
2022/01/06 21:58:38;;;;;;;8.07;2.00;;;;;;;-0.74;72.48;100474.81;10501109;28;20044;-72
2022/01/06 22:03:40;;;;;;;4.50;2.35;;;;;;;-0.70;72.17;100468.88;10500479;28;20048;-73
2022/01/06 22:08:42;;;;;;;4.93;1.98;;;;;;;-0.93;73.00;100464.91;10499977;28;20111;-72
2022/01/06 22:13:46;;;;;;;3.80;2.33;;;;;;;-0.85;72.79;100460.78;10502629;28;20466;-72
2022/01/06 22:18:48;;;;;;;6.60;1.80;;;;;;;-0.85;72.21;100448.75;10509014;28;20044;-73
2022/01/06 22:23:49;;;;;;;3.55;1.63;;;;;;;-0.93;72.40;100445.19;10508168;28;20040;-74
2022/01/06 22:28:51;;;;;;;4.32;1.88;;;;;;;-1.03;73.05;100445.78;10505637;28;20045;-73
2022/01/06 22:33:53;;;;;;;3.72;2.08;;;;;;;-1.23;73.62;100442.78;10508194;28;20056;-73
2022/01/06 22:38:54;;;;;;;3.33;1.70;;;;;;;-1.28;74.38;100434.94;10507271;28;20045;-72
2022/01/06 22:43:56;;;;;;;4.60;1.55;;;;;;;-1.54;75.34;100441.22;10506278;28;20048;-72
2022/01/06 22:48:58;;;;;;;2.97;1.50;;;;;;;-1.37;74.05;100436.47;10506581;28;20460;-73
2022/01/06 22:54:00;;;;;;;3.42;1.50;;;;;;;-1.37;73.45;100432.16;10506654;28;20040;-73
2022/01/06 22:59:02;;;;;;;4.60;1.58;;;;;;;-1.44;73.75;100434.56;10507406;28;20048;-73
2022/01/06 23:04:04;;;;;;;4.03;2.05;;;;;;;-1.44;73.90;100424.25;10506925;28;20127;-73
2022/01/06 23:09:07;;;;;;;3.92;1.35;;;;;;;-1.30;72.96;100428.00;10518206;22;20064;-74
2022/01/06 23:14:10;;;;;;;3.45;1.83;;;;;;;-1.07;71.99;100428.50;10508638;28;20056;-74
2022/01/06 23:19:12;;;;;;;1.92;1.30;;;;;;;-1.04;71.33;100424.28;10509326;28;20043;-75
2022/01/06 23:24:17;;;;;;;3.08;1.20;;;;;;;-1.13;71.74;100429.25;10508457;28;20049;-74
2022/01/06 23:29:19;;;;;;;3.00;1.40;;;;;;;-1.18;72.17;100430.88;10535486;28;20048;-74
2022/01/06 23:34:20;;;;;;;3.22;1.20;;;;;;;-1.23;72.36;100422.16;10552497;28;20048;-74
2022/01/06 23:39:22;;;;;;;2.78;1.10;;;;;;;-1.29;72.78;100420.28;10552139;28;20043;-75
2022/01/06 23:44:24;;;;;;;7.20;1.40;;;;;;;-1.28;72.39;100419.47;10551119;28;20477;-75
2022/01/06 23:49:27;;;;;;;3.85;1.40;;;;;;;-1.36;72.48;100410.69;10552634;28;20052;-75
2022/01/06 23:54:29;;;;;;;3.72;1.75;;;;;;;-1.38;72.54;100412.34;10550612;28;20052;-75